Wetterdaten: Woche 21.01.08 - 27.01.08 (KW4)
Datum Zeit Temp. a Sch. Temp. a Son. Temp. a Bod. Feuchte a. Luftdruck Regen Wind Richtung Sonnenschein Helligkeit Taupunkt Windchill
21.01.2008 00:00 9,6 C 9,0 C 8,1 C 87 % 1019 hPa 0,4 l/m 4,9 m/s (3 Bft) W-SW 0,00 h 0 lux 7,6 C 3,6 C
21.01.2008 01:00 9,4 C 8,8 C 8,0 C 89 % 1019 hPa 0,0 l/m 5,0 m/s (3 Bft) W-SW 0,00 h 0 lux 7,6 C 3,3 C
21.01.2008 02:00 9,4 C 8,7 C 7,9 C 87 % 1019 hPa 0,0 l/m 5,1 m/s (3 Bft) W-SW 0,00 h 0 lux 7,4 C 3,2 C
21.01.2008 03:00 9,5 C 8,9 C 7,7 C 82 % 1018 hPa 0,0 l/m 4,9 m/s (3 Bft) W-SW 0,00 h 0 lux 6,6 C 3,5 C
21.01.2008 04:00 9,4 C 8,9 C 7,5 C 77 % 1018 hPa 0,0 l/m 5,5 m/s (4 Bft) W-SW 0,00 h 0 lux 5,5 C 2,7 C
21.01.2008 05:00 9,2 C 8,8 C 7,4 C 76 % 1018 hPa 0,0 l/m 5,6 m/s (4 Bft) W-SW 0,00 h 0 lux 5,2 C 2,2 C
21.01.2008 06:00 8,7 C 8,3 C 7,2 C 83 % 1017 hPa 0,0 l/m 5,2 m/s (3 Bft) W-SW 0,00 h 0 lux 6,0 C 2,2 C
21.01.2008 07:00 8,3 C 7,8 C 7,1 C 88 % 1017 hPa 0,0 l/m 4,3 m/s (3 Bft) W-SW 0,00 h 0 lux 6,5 C 2,9 C
21.01.2008 08:00 8,2 C 7,6 C 7,0 C 90 % 1017 hPa 0,4 l/m 4,1 m/s (3 Bft) W-SW 0,00 h 352 lux 6,6 C 3,0 C
21.01.2008 09:00 8,1 C 7,6 C 7,0 C 91 % 1017 hPa 0,0 l/m 4,1 m/s (3 Bft) W-SW 0,00 h 1,26 klux 6,7 C 3,0 C
21.01.2008 10:00 8,5 C 7,8 C 7,0 C 85 % 1016 hPa 0,0 l/m 6,0 m/s (4 Bft) W-SW 0,00 h 3,61 klux 6,0 C 1,0 C
21.01.2008 11:00 9,2 C 8,8 C 7,6 C 73 % 1016 hPa 0,0 l/m 7,0 m/s (4 Bft) W-SW 0,08 h 11,1 klux 4,6 C 0,7 C
21.01.2008 12:00 9,4 C 9,5 C 7,8 C 70 % 1015 hPa 0,0 l/m 8,6 m/s (5 Bft) W-SW 0,25 h 19,8 klux 4,2 C -0,4 C
21.01.2008 13:00 8,8 C 8,9 C 7,4 C 75 % 1014 hPa 0,0 l/m 7,8 m/s (4 Bft) W-SW 0,00 h 6,47 klux 4,5 C -0,5 C
21.01.2008 14:00 8,9 C 8,6 C 7,4 C 72 % 1013 hPa 0,0 l/m 7,6 m/s (4 Bft) W-SW 0,00 h 5,73 klux 4,1 C -0,2 C
21.01.2008 15:00 8,9 C 8,7 C 7,6 C 63 % 1012 hPa 0,0 l/m 8,2 m/s (5 Bft) W-SW 0,00 h 1,83 klux 2,4 C -0,7 C
21.01.2008 16:00 8,6 C 8,5 C 7,5 C 62 % 1012 hPa 0,0 l/m 8,5 m/s (5 Bft) W-SW 0,00 h 230 lux 1,7 C -1,3 C
21.01.2008 17:00 8,3 C 8,1 C 7,1 C 61 % 1011 hPa 0,0 l/m 8,4 m/s (5 Bft) W-SW 0,00 h 20 lux 1,2 C -1,8 C
21.01.2008 18:00 8,0 C 7,8 C 6,9 C 59 % 1010 hPa 0,0 l/m 7,7 m/s (4 Bft) W-SW 0,00 h 0 lux 0,4 C -1,5 C
21.01.2008 19:00 8,0 C 7,8 C 6,9 C 59 % 1009 hPa 0,4 l/m 8,7 m/s (5 Bft) W-SW 0,00 h 0 lux 0,5 C -2,3 C
21.01.2008 20:00 7,4 C 7,1 C 5,9 C 72 % 1008 hPa 0,0 l/m 7,9 m/s (4 Bft) W-SW 0,00 h 0 lux 2,7 C -2,5 C
21.01.2008 21:00 7,4 C 6,6 C 5,8 C 78 % 1006 hPa 0,4 l/m 8,0 m/s (4 Bft) W-SW 0,00 h 0 lux 3,8 C -2,7 C
21.01.2008 22:00 7,7 C 6,8 C 6,0 C 79 % 1006 hPa 0,0 l/m 7,8 m/s (4 Bft) W-SW 0,00 h 0 lux 4,3 C -1,9 C
21.01.2008 23:00 8,0 C 7,3 C 6,1 C 74 % 1005 hPa 0,0 l/m 7,4 m/s (4 Bft) W-SW 0,00 h 0 lux 3,7 C -1,2 C
22.01.2008 00:00 7,9 C 7,2 C 6,1 C 79 % 1004 hPa 0,4 l/m 7,4 m/s (4 Bft) W-SW 0,00 h 0 lux 4,4 C -1,4 C
22.01.2008 01:00 7,8 C 7,1 C 5,9 C 74 % 1003 hPa 0,0 l/m 6,7 m/s (4 Bft) W-SW 0,00 h 0 lux 3,5 C -0,6 C
22.01.2008 02:00 6,4 C 6,7 C 5,0 C 76 % 1003 hPa 1,4 l/m 6,0 m/s (4 Bft) W 0,00 h 0 lux 2,4 C -1,1 C
22.01.2008 03:00 6,6 C 6,1 C 5,2 C 85 % 1003 hPa 0,0 l/m 3,2 m/s (2 Bft) W-SW 0,00 h 0 lux 4,2 C 2,6 C
22.01.2008 04:00 7,4 C 6,9 C 5,5 C 75 % 1003 hPa 0,0 l/m 5,6 m/s (4 Bft) W-SW 0,00 h 0 lux 3,3 C -0,0 C
22.01.2008 05:00 7,4 C 7,1 C 5,6 C 76 % 1003 hPa 1,1 l/m 6,6 m/s (4 Bft) W-SW 0,00 h 0 lux 3,4 C -1,1 C
22.01.2008 06:00 6,1 C 6,2 C 4,9 C 81 % 1005 hPa 0,7 l/m 5,8 m/s (4 Bft) NW 0,00 h 0 lux 3,1 C -1,3 C
22.01.2008 07:00 3,8 C 4,5 C 2,7 C 71 % 1008 hPa 0,0 l/m 5,6 m/s (4 Bft) NW 0,00 h 0 lux -1,0 C -4,3 C
22.01.2008 08:00 2,9 C 3,3 C 1,9 C 70 % 1011 hPa 0,0 l/m 4,0 m/s (3 Bft) W 0,00 h 345 lux -2,0 C -2,9 C
22.01.2008 09:00 2,9 C 3,0 C 2,0 C 76 % 1013 hPa 0,0 l/m 2,8 m/s (2 Bft) W-SW 0,08 h 4,79 klux -1,0 C -0,0 C
22.01.2008 10:00 3,3 C 3,4 C 1,8 C 60 % 1015 hPa 0,0 l/m 7,0 m/s (4 Bft) W 0,25 h 14,9 klux -3,8 C -7,0 C
22.01.2008 11:00 4,1 C 4,1 C 2,9 C 53 % 1017 hPa 0,0 l/m 6,9 m/s (4 Bft) W-NW 0,33 h 23,4 klux -4,6 C -5,7 C
22.01.2008 12:00 4,3 C 4,7 C 4,1 C 50 % 1019 hPa 0,0 l/m 6,5 m/s (4 Bft) W-NW 0,48 h 27,1 klux -5,2 C -5,2 C
22.01.2008 13:00 4,0 C 4,6 C 3,9 C 53 % 1020 hPa 0,0 l/m 6,1 m/s (4 Bft) W-NW 0,00 h 9,3 klux -4,8 C -4,8 C
22.01.2008 14:00 4,5 C 4,6 C 4,1 C 50 % 1021 hPa 0,0 l/m 3,9 m/s (3 Bft) W 0,17 h 13,8 klux -5,0 C -0,5 C
22.01.2008 15:00 5,0 C 5,1 C 4,3 C 45 % 1022 hPa 0,0 l/m 5,9 m/s (4 Bft) W-NW 0,83 h 18,2 klux -5,9 C -3,5 C
22.01.2008 16:00 3,8 C 4,0 C 2,8 C 48 % 1023 hPa 0,0 l/m 4,5 m/s (3 Bft) W-NW 0,25 h 3,47 klux -6,3 C -2,4 C
22.01.2008 17:00 1,7 C 2,3 C 0,7 C 58 % 1024 hPa 0,0 l/m 1,1 m/s (1 Bft) W 0,00 h 105 lux -5,8 C 1,1 C
22.01.2008 18:00 -0,0 C 0,6 C -0,5 C 72 % 1025 hPa 0,0 l/m 0,1 m/s (0 Bft) W 0,00 h 0 lux -4,5 C -0,0 C
22.01.2008 19:00 -0,3 C -0,2 C -0,9 C 76 % 1026 hPa 0,0 l/m 1,0 m/s (1 Bft) W 0,00 h 0 lux -4,0 C -0,5 C
22.01.2008 20:00 -1,5 C -1,0 C -1,9 C 80 % 1027 hPa 0,0 l/m 0,1 m/s (0 Bft) N 0,00 h 0 lux -4,5 C -1,5 C
22.01.2008 21:00 -2,1 C -2,0 C -2,3 C 84 % 1028 hPa 0,0 l/m 0,0 m/s (0 Bft) N 0,00 h 0 lux -4,4 C -2,1 C
22.01.2008 22:00 -2,5 C -2,4 C -2,4 C 87 % 1029 hPa 0,0 l/m 0,1 m/s (0 Bft) W-SW 0,00 h 0 lux -4,4 C -2,5 C
22.01.2008 23:00 -2,9 C -2,9 C -2,6 C 88 % 1029 hPa 0,0 l/m 0,0 m/s (0 Bft) N 0,00 h 0 lux -4,6 C -2,9 C
23.01.2008 00:00 -3,0 C -3,1 C -2,8 C 89 % 1030 hPa 0,0 l/m 0,0 m/s (0 Bft) N 0,00 h 0 lux -4,6 C -3,0 C
23.01.2008 01:00 -2,8 C -3,0 C -2,6 C 89 % 1030 hPa 0,0 l/m 0,0 m/s (0 Bft) N 0,00 h 0 lux -4,4 C -2,8 C
23.01.2008 02:00 -3,5 C -3,4 C -3,0 C 88 % 1030 hPa 0,0 l/m 0,0 m/s (0 Bft) N 0,00 h 0 lux -5,2 C -3,5 C
23.01.2008 03:00 -3,9 C -3,9 C -3,3 C 88 % 1030 hPa 0,0 l/m 0,0 m/s (0 Bft) N 0,00 h 0 lux -5,7 C -3,9 C
23.01.2008 04:00 -4,3 C -4,3 C -3,7 C 87 % 1030 hPa 0,0 l/m 0,0 m/s (0 Bft) N 0,00 h 0 lux -6,1 C -4,3 C
23.01.2008 05:00 -4,5 C -4,5 C -3,8 C 87 % 1030 hPa 0,0 l/m 0,0 m/s (0 Bft) N 0,00 h 0 lux -6,4 C -4,5 C
23.01.2008 06:00 -4,0 C -4,2 C -3,5 C 86 % 1030 hPa 0,0 l/m 0,0 m/s (0 Bft) N 0,00 h 0 lux -5,9 C -4,0 C
23.01.2008 07:00 -3,1 C -3,4 C -3,1 C 87 % 1030 hPa 0,0 l/m 0,0 m/s (0 Bft) N 0,00 h 0 lux -5,0 C -3,1 C
23.01.2008 08:00 -2,4 C -2,9 C -2,7 C 87 % 1030 hPa 0,0 l/m 0,0 m/s (0 Bft) N 0,00 h 689 lux -4,2 C -2,4 C
23.01.2008 09:00 -1,4 C -1,8 C -1,8 C 88 % 1030 hPa 0,0 l/m 0,0 m/s (0 Bft) N 0,08 h 7,46 klux -3,1 C -1,4 C
23.01.2008 10:00 0,6 C 0,4 C -0,2 C 87 % 1030 hPa 0,0 l/m 0,0 m/s (0 Bft) N 0,33 h 14,1 klux -1,3 C 0,6 C
23.01.2008 11:00 2,2 C 2,2 C 1,1 C 79 % 1030 hPa 0,0 l/m 0,3 m/s (0 Bft) SW 0,25 h 19,4 klux -1,2 C 2,2 C
23.01.2008 12:00 3,2 C 3,3 C 2,0 C 61 % 1030 hPa 0,4 l/m 3,3 m/s (2 Bft) SW 0,00 h 12,2 klux -3,7 C -1,2 C
23.01.2008 13:00 4,3 C 4,8 C 3,0 C 53 % 1029 hPa 0,0 l/m 3,6 m/s (3 Bft) SW 0,42 h 24,6 klux -4,4 C -0,5 C
23.01.2008 14:00 4,7 C 5,0 C 3,6 C 52 % 1028 hPa 0,0 l/m 2,4 m/s (2 Bft) SW 0,00 h 8,28 klux -4,4 C 2,4 C
23.01.2008 15:00 4,5 C 4,6 C 3,5 C 52 % 1028 hPa 0,0 l/m 2,8 m/s (2 Bft) SW 0,00 h 2,36 klux -4,4 C 1,5 C
23.01.2008 16:00 4,1 C 4,2 C 3,1 C 60 % 1028 hPa 0,0 l/m 4,4 m/s (3 Bft) W-SW 0,00 h 623 lux -3,0 C -2,3 C
23.01.2008 17:00 4,1 C 4,0 C 3,0 C 60 % 1028 hPa 0,0 l/m 3,3 m/s (2 Bft) SW 0,00 h 33 lux -2,9 C -0,0 C
23.01.2008 18:00 4,3 C 4,2 C 3,1 C 58 % 1028 hPa 0,0 l/m 3,2 m/s (2 Bft) SW 0,00 h 0 lux -3,2 C 0,5 C
23.01.2008 19:00 4,2 C 4,2 C 3,1 C 60 % 1028 hPa 0,0 l/m 2,8 m/s (2 Bft) W-SW 0,00 h 0 lux -2,9 C 1,4 C
23.01.2008 20:00 4,3 C 4,2 C 3,1 C 61 % 1028 hPa 0,0 l/m 2,1 m/s (2 Bft) W-SW 0,00 h 0 lux -2,7 C 2,7 C
23.01.2008 21:00 4,5 C 4,2 C 3,3 C 62 % 1028 hPa 0,0 l/m 2,7 m/s (2 Bft) W-SW 0,00 h 0 lux -2,2 C 1,8 C
23.01.2008 22:00 4,6 C 4,4 C 3,5 C 61 % 1027 hPa 0,0 l/m 4,2 m/s (3 Bft) W-SW 0,00 h 0 lux -2,2 C -1,3 C
23.01.2008 23:00 4,7 C 4,5 C 3,6 C 61 % 1027 hPa 0,0 l/m 4,8 m/s (3 Bft) W-SW 0,00 h 0 lux -2,1 C -2,4 C
24.01.2008 00:00 4,9 C 4,7 C 3,8 C 60 % 1027 hPa 0,0 l/m 4,6 m/s (3 Bft) W-SW 0,00 h 0 lux -2,1 C -1,8 C
24.01.2008 01:00 4,9 C 4,8 C 3,7 C 60 % 1027 hPa 0,0 l/m 2,9 m/s (2 Bft) W-SW 0,00 h 0 lux -2,1 C 1,8 C
24.01.2008 02:00 4,3 C 4,5 C 3,0 C 64 % 1027 hPa 0,0 l/m 0,4 m/s (1 Bft) S-SW 0,00 h 0 lux -1,9 C 4,1 C
24.01.2008 03:00 4,0 C 4,0 C 2,6 C 65 % 1027 hPa 0,0 l/m 2,3 m/s (2 Bft) W 0,00 h 0 lux -2,1 C 1,6 C
24.01.2008 04:00 3,5 C 3,5 C 2,2 C 67 % 1026 hPa 0,0 l/m 0,6 m/s (1 Bft) W-SW 0,00 h 0 lux -2,0 C 3,4 C
24.01.2008 05:00 3,4 C 3,3 C 2,2 C 69 % 1026 hPa 0,0 l/m 0,8 m/s (1 Bft) SW 0,00 h 0 lux -1,8 C 3,2 C
24.01.2008 06:00 4,1 C 3,8 C 2,8 C 65 % 1026 hPa 0,0 l/m 0,8 m/s (1 Bft) S-SO 0,00 h 0 lux -2,0 C 3,8 C
24.01.2008 07:00 4,2 C 4,0 C 2,9 C 65 % 1026 hPa 0,0 l/m 0,4 m/s (1 Bft) SW 0,00 h 0 lux -1,8 C 4,0 C
24.01.2008 08:00 4,5 C 4,3 C 3,2 C 66 % 1026 hPa 0,0 l/m 1,0 m/s (1 Bft) S-SW 0,00 h 416 lux -1,4 C 3,5 C
24.01.2008 09:00 5,2 C 4,8 C 4,1 C 62 % 1026 hPa 0,0 l/m 4,0 m/s (3 Bft) W-SW 0,00 h 2,18 klux -1,6 C -0,2 C
24.01.2008 10:00 5,9 C 5,5 C 4,9 C 61 % 1026 hPa 0,0 l/m 4,6 m/s (3 Bft) W 0,00 h 5,16 klux -1,1 C -0,5 C
24.01.2008 11:00 6,2 C 6,0 C 5,3 C 61 % 1026 hPa 0,0 l/m 4,2 m/s (3 Bft) W 0,00 h 4,88 klux -0,8 C 0,7 C
24.01.2008 12:00 6,5 C 6,3 C 5,6 C 62 % 1026 hPa 0,0 l/m 3,8 m/s (3 Bft) W 0,00 h 4,74 klux -0,2 C 2,0 C
24.01.2008 13:00 6,9 C 6,6 C 5,9 C 65 % 1025 hPa 0,0 l/m 3,8 m/s (3 Bft) W 0,00 h 4,06 klux 0,8 C 2,2 C
24.01.2008 14:00 7,3 C 6,9 C 6,1 C 65 % 1025 hPa 0,0 l/m 3,6 m/s (3 Bft) W-SW 0,00 h 2,18 klux 1,1 C 3,0 C
24.01.2008 15:00 7,4 C 7,1 C 6,1 C 65 % 1025 hPa 0,0 l/m 3,5 m/s (3 Bft) W-SW 0,00 h 2,17 klux 1,3 C 3,3 C
24.01.2008 16:00 7,1 C 7,0 C 5,9 C 66 % 1025 hPa 0,0 l/m 3,4 m/s (3 Bft) W-SW 0,00 h 476 lux 1,2 C 3,1 C
24.01.2008 17:00 7,0 C 6,8 C 5,8 C 68 % 1025 hPa 0,0 l/m 4,0 m/s (3 Bft) W-SW 0,00 h 30 lux 1,5 C 1,9 C
24.01.2008 18:00 6,8 C 6,6 C 5,6 C 73 % 1026 hPa 0,0 l/m 4,9 m/s (3 Bft) W 0,00 h 0 lux 2,2 C 0,1 C
24.01.2008 19:00 6,5 C 6,3 C 5,2 C 77 % 1027 hPa 0,0 l/m 5,1 m/s (3 Bft) W 0,00 h 0 lux 2,7 C -0,4 C
24.01.2008 20:00 6,3 C 6,0 C 4,9 C 83 % 1028 hPa 0,7 l/m 6,0 m/s (4 Bft) W 0,00 h 0 lux 3,7 C -0,9 C
24.01.2008 21:00 5,3 C 5,5 C 3,7 C 73 % 1029 hPa 0,0 l/m 6,4 m/s (4 Bft) W 0,00 h 0 lux 0,9 C -3,1 C
24.01.2008 22:00 4,8 C 4,8 C 3,2 C 75 % 1030 hPa 0,4 l/m 5,0 m/s (3 Bft) W-SW 0,00 h 0 lux 0,8 C -2,1 C
24.01.2008 23:00 4,4 C 4,3 C 2,5 C 69 % 1032 hPa 0,0 l/m 5,5 m/s (4 Bft) W 0,00 h 0 lux -0,7 C -3,6 C
25.01.2008 00:00 3,4 C 3,3 C 1,4 C 67 % 1033 hPa 0,0 l/m 3,7 m/s (3 Bft) W-SW 0,00 h 0 lux -2,2 C -1,5 C
25.01.2008 01:00 1,4 C 1,7 C -0,2 C 76 % 1034 hPa 0,0 l/m 0,7 m/s (1 Bft) W-NW 0,00 h 0 lux -2,4 C 1,2 C
25.01.2008 02:00 -0,2 C 0,1 C -1,2 C 84 % 1035 hPa 0,0 l/m 0,3 m/s (1 Bft) W-NW 0,00 h 0 lux -2,6 C -0,2 C
25.01.2008 03:00 -1,3 C -1,1 C -2,0 C 87 % 1035 hPa 0,0 l/m 0,0 m/s (0 Bft) N 0,00 h 0 lux -3,2 C -1,3 C
25.01.2008 04:00 -1,9 C -1,9 C -2,3 C 89 % 1035 hPa 0,0 l/m 0,1 m/s (0 Bft) W-NW 0,00 h 0 lux -3,5 C -1,9 C
25.01.2008 05:00 -2,3 C -2,4 C -2,6 C 90 % 1036 hPa 0,0 l/m 0,1 m/s (0 Bft) N 0,00 h 0 lux -3,7 C -2,3 C
25.01.2008 06:00 -2,4 C -2,8 C -2,8 C 92 % 1036 hPa 0,0 l/m 0,1 m/s (0 Bft) N-NW 0,00 h 0 lux -3,6 C -2,4 C
25.01.2008 07:00 -3,0 C -3,1 C -3,0 C 92 % 1037 hPa 0,0 l/m 0,0 m/s (0 Bft) N 0,00 h 60 lux -4,2 C -3,0 C
25.01.2008 08:00 -3,2 C -3,3 C -3,1 C 91 % 1037 hPa 0,0 l/m 0,0 m/s (0 Bft) N 0,33 h 2,96 klux -4,4 C -3,2 C
25.01.2008 09:00 -1,5 C -2,4 C -2,0 C 91 % 1038 hPa 0,0 l/m 0,8 m/s (1 Bft) W-SW 1,00 h 18,6 klux -2,7 C -1,6 C
25.01.2008 10:00 0,5 C -0,4 C -0,7 C 90 % 1038 hPa 0,0 l/m 0,3 m/s (0 Bft) SW 0,75 h 24,2 klux -0,9 C 0,5 C
25.01.2008 11:00 3,2 C 2,5 C 1,4 C 70 % 1037 hPa 0,0 l/m 3,9 m/s (3 Bft) W-SW 1,00 h 31,0 klux -2,0 C -2,0 C
25.01.2008 12:00 4,5 C 4,9 C 2,8 C 51 % 1037 hPa 0,0 l/m 5,6 m/s (4 Bft) W-SW 0,92 h 32,6 klux -4,8 C -3,9 C
25.01.2008 13:00 5,5 C 5,5 C 3,8 C 44 % 1036 hPa 0,0 l/m 5,2 m/s (3 Bft) W-SW 1,00 h 31,2 klux -5,7 C -1,8 C
25.01.2008 14:00 6,5 C 6,2 C 4,4 C 35 % 1035 hPa 0,0 l/m 6,0 m/s (4 Bft) W-SW 1,00 h 26,6 klux -7,8 C -1,7 C
25.01.2008 15:00 6,1 C 6,5 C 4,4 C 35 % 1035 hPa 0,0 l/m 6,4 m/s (4 Bft) W-SW 0,33 h 12,9 klux -8,1 C -2,8 C
25.01.2008 16:00 4,8 C 5,3 C 3,2 C 44 % 1034 hPa 0,0 l/m 4,5 m/s (3 Bft) W-SW 0,00 h 3,37 klux -6,4 C -1,7 C
25.01.2008 17:00 3,6 C 3,7 C 2,1 C 53 % 1034 hPa 0,0 l/m 4,3 m/s (3 Bft) W-SW 0,00 h 105 lux -5,2 C -2,9 C
25.01.2008 18:00 3,0 C 2,8 C 1,6 C 57 % 1034 hPa 0,0 l/m 4,1 m/s (3 Bft) W 0,00 h 0 lux -4,6 C -3,2 C
25.01.2008 19:00 3,2 C 2,9 C 2,0 C 59 % 1034 hPa 0,0 l/m 4,0 m/s (3 Bft) W-SW 0,00 h 0 lux -4,1 C -2,8 C
25.01.2008 20:00 3,7 C 3,4 C 2,5 C 59 % 1034 hPa 0,0 l/m 3,7 m/s (3 Bft) W-SW 0,00 h 0 lux -3,5 C -1,5 C
25.01.2008 21:00 4,3 C 3,9 C 3,0 C 59 % 1034 hPa 0,0 l/m 4,1 m/s (3 Bft) W-SW 0,00 h 0 lux -2,9 C -1,7 C
25.01.2008 22:00 4,5 C 4,2 C 3,1 C 60 % 1034 hPa 0,0 l/m 5,9 m/s (4 Bft) W 0,00 h 0 lux -2,5 C -4,1 C
25.01.2008 23:00 4,4 C 4,3 C 3,2 C 62 % 1033 hPa 0,0 l/m 4,5 m/s (3 Bft) W 0,00 h 0 lux -2,3 C -2,1 C
26.01.2008 00:00 4,3 C 4,1 C 3,1 C 63 % 1034 hPa 0,0 l/m 2,8 m/s (2 Bft) W-SW 0,00 h 0 lux -2,1 C 1,3 C
26.01.2008 01:00 4,1 C 4,0 C 3,1 C 64 % 1034 hPa 0,0 l/m 4,4 m/s (3 Bft) W 0,00 h 0 lux -2,0 C -2,3 C
26.01.2008 02:00 4,1 C 3,9 C 3,1 C 66 % 1033 hPa 0,0 l/m 4,5 m/s (3 Bft) W 0,00 h 0 lux -1,8 C -2,7 C
26.01.2008 03:00 4,1 C 3,9 C 3,1 C 67 % 1033 hPa 0,0 l/m 5,5 m/s (3 Bft) W 0,00 h 0 lux -1,6 C -4,1 C
26.01.2008 04:00 4,2 C 4,0 C 3,1 C 67 % 1033 hPa 0,0 l/m 3,5 m/s (3 Bft) W 0,00 h 0 lux -1,3 C -0,6 C
26.01.2008 05:00 4,2 C 4,1 C 3,2 C 69 % 1033 hPa 0,0 l/m 3,4 m/s (3 Bft) W-SW 0,00 h 0 lux -1,0 C -0,3 C
26.01.2008 06:00 4,3 C 4,1 C 3,2 C 69 % 1033 hPa 0,0 l/m 3,5 m/s (3 Bft) W 0,00 h 0 lux -0,8 C -0,2 C
26.01.2008 07:00 5,1 C 4,5 C 3,8 C 68 % 1033 hPa 0,0 l/m 5,4 m/s (3 Bft) W 0,00 h 0 lux -0,4 C -2,6 C
26.01.2008 08:00 5,1 C 5,0 C 4,0 C 68 % 1033 hPa 0,0 l/m 4,7 m/s (3 Bft) W-SW 0,00 h 766 lux -0,4 C -1,6 C
26.01.2008 09:00 4,9 C 4,8 C 4,0 C 68 % 1032 hPa 0,0 l/m 5,8 m/s (4 Bft) W-SW 0,00 h 4,82 klux -0,6 C -3,5 C
26.01.2008 10:00 4,9 C 5,1 C 4,3 C 67 % 1032 hPa 0,0 l/m 5,2 m/s (3 Bft) W-SW 0,00 h 14,6 klux -0,7 C -2,7 C
26.01.2008 11:00 5,3 C 5,6 C 4,9 C 65 % 1033 hPa 0,0 l/m 5,3 m/s (3 Bft) W-SW 0,00 h 16,5 klux -0,8 C -2,3 C
26.01.2008 12:00 6,0 C 6,1 C 5,2 C 60 % 1033 hPa 0,0 l/m 4,3 m/s (3 Bft) W 0,25 h 19,5 klux -1,2 C 0,1 C
26.01.2008 13:00 8,5 C 7,9 C 6,6 C 44 % 1031 hPa 0,0 l/m 6,1 m/s (4 Bft) W-SW 0,92 h 30,7 klux -3,2 C 0,8 C
26.01.2008 14:00 9,3 C 9,1 C 7,1 C 38 % 1030 hPa 0,0 l/m 6,8 m/s (4 Bft) W-SW 1,00 h 26,2 klux -4,3 C 1,1 C
26.01.2008 15:00 9,1 C 8,9 C 6,9 C 37 % 1029 hPa 0,0 l/m 6,2 m/s (4 Bft) W-SW 1,00 h 20,1 klux -5,0 C 1,4 C
26.01.2008 16:00 8,0 C 8,1 C 6,0 C 41 % 1029 hPa 0,0 l/m 4,9 m/s (3 Bft) W-SW 0,83 h 7,60 klux -4,6 C 1,7 C
26.01.2008 17:00 6,7 C 6,7 C 4,9 C 46 % 1030 hPa 0,0 l/m 4,6 m/s (3 Bft) W 0,00 h 178 lux -4,1 C 0,6 C
26.01.2008 18:00 7,4 C 6,7 C 5,6 C 44 % 1030 hPa 0,0 l/m 6,9 m/s (4 Bft) W 0,00 h 0 lux -4,0 C -1,4 C
26.01.2008 19:00 7,3 C 7,1 C 6,0 C 52 % 1030 hPa 0,0 l/m 7,2 m/s (4 Bft) W 0,00 h 0 lux -2,0 C -1,9 C
26.01.2008 20:00 7,0 C 6,9 C 5,8 C 58 % 1030 hPa 0,0 l/m 7,1 m/s (4 Bft) W 0,00 h 0 lux -0,8 C -2,2 C
26.01.2008 21:00 6,7 C 6,6 C 5,6 C 66 % 1030 hPa 0,0 l/m 6,8 m/s (4 Bft) W 0,00 h 0 lux 0,7 C -2,3 C
26.01.2008 22:00 6,4 C 6,3 C 5,4 C 67 % 1029 hPa 0,0 l/m 6,6 m/s (4 Bft) W 0,00 h 0 lux 0,7 C -2,6 C
26.01.2008 23:00 6,2 C 6,1 C 5,3 C 66 % 1028 hPa 0,0 l/m 6,5 m/s (4 Bft) W 0,00 h 0 lux 0,4 C -2,6 C
27.01.2008 00:00 6,0 C 5,9 C 5,1 C 69 % 1028 hPa 0,0 l/m 7,5 m/s (4 Bft) W 0,00 h 0 lux 0,7 C -4,1 C
27.01.2008 01:00 5,7 C 5,7 C 4,8 C 71 % 1028 hPa 0,0 l/m 7,5 m/s (4 Bft) W 0,00 h 0 lux 0,9 C -4,4 C
27.01.2008 02:00 5,0 C 5,2 C 4,3 C 68 % 1027 hPa 0,0 l/m 5,0 m/s (3 Bft) W 0,00 h 0 lux -0,4 C -2,2 C
27.01.2008 03:00 5,1 C 5,0 C 4,3 C 67 % 1026 hPa 0,0 l/m 8,4 m/s (5 Bft) W 0,00 h 0 lux -0,4 C -5,8 C
27.01.2008 04:00 4,8 C 4,8 C 4,0 C 68 % 1026 hPa 0,0 l/m 7,7 m/s (4 Bft) W 0,00 h 0 lux -0,6 C -5,7 C
27.01.2008 05:00 4,7 C 4,6 C 3,9 C 72 % 1026 hPa 0,0 l/m 6,8 m/s (4 Bft) W 0,00 h 0 lux 0,0 C -5,1 C
27.01.2008 06:00 4,6 C 4,5 C 3,4 C 75 % 1025 hPa 0,0 l/m 7,9 m/s (4 Bft) W 0,00 h 0 lux 0,5 C -6,3 C
27.01.2008 07:00 4,6 C 4,4 C 3,7 C 75 % 1025 hPa 0,0 l/m 10,2 m/s (5 Bft) W 0,00 h 0 lux 0,5 C -8,3 C
27.01.2008 08:00 4,7 C 4,5 C 3,8 C 77 % 1025 hPa 0,0 l/m 9,9 m/s (5 Bft) W 0,00 h 226 lux 1,0 C -8,0 C
27.01.2008 09:00 4,8 C 4,5 C 3,9 C 79 % 1025 hPa 0,0 l/m 9,7 m/s (5 Bft) W 0,00 h 866 lux 1,5 C -7,7 C
27.01.2008 10:00 4,8 C 4,6 C 3,8 C 84 % 1026 hPa 0,0 l/m 8,1 m/s (5 Bft) W 0,00 h 1,08 klux 2,3 C -6,2 C
27.01.2008 11:00 4,9 C 4,6 C 3,9 C 85 % 1026 hPa 0,0 l/m 9,4 m/s (5 Bft) W 0,00 h 2,41 klux 2,6 C -7,3 C
27.01.2008 12:00 5,3 C 4,9 C 4,3 C 83 % 1026 hPa 0,0 l/m 9,7 m/s (5 Bft) W 0,00 h 3,13 klux 2,6 C -7,1 C
27.01.2008 13:00 5,4 C 5,0 C 4,5 C 83 % 1026 hPa 0,0 l/m 9,6 m/s (5 Bft) W 0,00 h 3,45 klux 2,7 C -6,8 C
27.01.2008 14:00 5,4 C 5,0 C 4,3 C 85 % 1027 hPa 0,0 l/m 8,5 m/s (5 Bft) W 0,00 h 1,49 klux 3,1 C -5,9 C
27.01.2008 15:00 5,4 C 4,9 C 4,3 C 86 % 1027 hPa 0,0 l/m 7,5 m/s (4 Bft) W-SW 0,00 h 1,02 klux 3,3 C -4,9 C
27.01.2008 16:00 5,6 C 5,1 C 4,4 C 87 % 1028 hPa 0,0 l/m 6,9 m/s (4 Bft) W 0,00 h 304 lux 3,6 C -3,9 C
27.01.2008 17:00 5,7 C 5,2 C 4,5 C 89 % 1029 hPa 0,4 l/m 5,8 m/s (4 Bft) W-SW 0,00 h 34 lux 4,1 C -2,4 C
27.01.2008 18:00 5,9 C 5,4 C 4,7 C 90 % 1029 hPa 0,0 l/m 5,7 m/s (4 Bft) W-SW 0,00 h 0 lux 4,5 C -2,1 C
27.01.2008 19:00 6,2 C 5,6 C 4,9 C 89 % 1030 hPa 0,0 l/m 4,8 m/s (3 Bft) W-SW 0,00 h 0 lux 4,6 C -0,4 C
27.01.2008 20:00 6,4 C 5,8 C 5,0 C 89 % 1030 hPa 0,0 l/m 5,7 m/s (4 Bft) W-SW 0,00 h 0 lux 4,6 C -1,6 C
27.01.2008 21:00 6,5 C 5,9 C 5,0 C 87 % 1030 hPa 0,0 l/m 3,8 m/s (3 Bft) W-SW 0,00 h 0 lux 4,5 C 1,8 C
27.01.2008 22:00 6,6 C 6,0 C 5,1 C 86 % 1031 hPa 0,0 l/m 3,3 m/s (2 Bft) W-SW 0,00 h 0 lux 4,4 C 2,8 C
27.01.2008 23:00 6,7 C 6,1 C 5,1 C 84 % 1031 hPa 0,0 l/m 2,4 m/s (2 Bft) W-SW 0,00 h 0 lux 4,2 C 4,9 C
Min-Datum _ 23.01.08 23.01.08 23.01.08 25.01.08 22.01.08 - 22.01.08 - - - 25.01.08 22.01.08
_ Min-Zeit 05:32 05:32 05:37 15:02 04:12 - 03:17 - - - 15:07 10:17
Minimum _ -4,7 C -4,6 C -4,0 C 31 % 1002 hPa - 0,0 m/s (0 Bft) - - - -9,2 C -11,2 C
Max-Datum _ 21.01.08 21.01.08 21.01.08 25.01.08 25.01.08 22.01.08 24.01.08 - 25.01.08 23.01.08 21.01.08 24.01.08
_ Max-Zeit 00:02 12:47 12:32 06:22 09:47 02:32 20:47 - 14:47 11:37 00:02 15:52
Maximum _ 9,7 C 9,9 C 8,3 C 92 % 1038 hPa 1,4 l/m 14,8 m/s
W (7 Bft)
- 0,10 h 42,0 klux 7,8 C 7,3 C
Durchschnitt _ 4,5 C 4,4 C 3,4 C 70 % 1026 hPa #6,8 l/m 4,4 m/s (3 Bft) W-SW #14:09 h 3,69 klux -0,7 C -1,2 C